Time;durP1;ratioP1;P1;durP2;ratioP2;P2;SDS_P1;SDS_P2;PMS_P1;PMS_P2;Temp;Humidity;BMP_temperature;BMP_pressure;BME280_temperature;BME280_humidity;BME280_pressure;Samples;Min_cycle;Max_cycle;Signal;HPM_P1;HPM_P2
2024/03/18 00:02:24;;;;;;;12.27;4.50;;;7.80;18.00;;;;;;5000061;28;20042;-57
2024/03/18 00:04:50;;;;;;;9.23;4.35;;;7.80;28.30;;;;;;5004402;28;20041;-62
2024/03/18 00:07:16;;;;;;;12.80;5.72;;;7.80;20.90;;;;;;4985825;28;20532;-60
2024/03/18 00:09:42;;;;;;;11.95;4.35;;;7.80;1.00;;;;;;5002936;28;20538;-60
2024/03/18 00:12:08;;;;;;;12.45;5.53;;;7.80;1.00;;;;;;4990463;28;20049;-55
2024/03/18 00:14:34;;;;;;;11.85;4.70;;;7.80;1.00;;;;;;4985154;28;20064;-64
2024/03/18 00:16:59;;;;;;;9.23;4.07;;;7.80;1.00;;;;;;5006484;28;20551;-60
2024/03/18 00:19:25;;;;;;;11.10;5.22;;;7.80;1.00;;;;;;5008644;28;20531;-51
2024/03/18 00:21:51;;;;;;;8.13;4.38;;;7.70;1.00;;;;;;4992241;28;20420;-55
2024/03/18 00:24:18;;;;;;;14.93;5.63;;;7.80;25.50;;;;;;5003220;28;20054;-62
2024/03/18 00:26:44;;;;;;;6.43;3.85;;;7.70;72.70;;;;;;4990750;28;20394;-64
2024/03/18 00:29:10;;;;;;;8.18;4.80;;;7.60;87.40;;;;;;5003847;28;20049;-60
2024/03/18 00:31:35;;;;;;;8.60;4.28;;;7.60;95.90;;;;;;4984325;28;20069;-64
2024/03/18 00:34:01;;;;;;;8.00;4.28;;;7.60;98.80;;;;;;4984928;28;20108;-53
2024/03/18 00:36:27;;;;;;;12.32;5.28;;;7.60;99.90;;;;;;4985964;28;20515;-62
2024/03/18 00:38:52;;;;;;;10.38;5.03;;;7.60;96.10;;;;;;4969625;28;20092;-64
2024/03/18 00:44:04;;;;;;;7.38;4.13;;;7.60;85.80;;;;;;4986541;28;20050;-61
2024/03/18 00:46:30;;;;;;;8.20;4.88;;;7.60;60.90;;;;;;5002139;28;20365;-59
2024/03/18 00:48:56;;;;;;;9.30;4.60;;;7.60;75.20;;;;;;4984720;28;20136;-66
2024/03/18 00:51:22;;;;;;;8.20;4.88;;;7.60;48.80;;;;;;4985502;28;20124;-64
2024/03/18 00:53:48;;;;;;;10.40;5.15;;;7.60;62.80;;;;;;4967688;28;20096;-62
2024/03/18 00:56:13;;;;;;;8.57;5.78;;;7.60;65.60;;;;;;4981779;28;20478;-63
2024/03/18 00:58:39;;;;;;;8.30;4.90;;;7.60;79.00;;;;;;5007376;28;20033;-61
2024/03/18 01:01:07;;;;;;;11.32;5.32;;;7.50;92.60;;;;;;5006928;28;20049;-63
2024/03/18 01:03:35;;;;;;;6.50;4.47;;;7.50;94.70;;;;;;5001229;28;20430;-52
2024/03/18 01:06:01;;;;;;;11.70;5.88;;;7.50;92.70;;;;;;5001834;28;20050;-53
2024/03/18 01:08:27;;;;;;;10.90;5.20;;;7.50;84.00;;;;;;5003097;28;20107;-60
2024/03/18 01:10:53;;;;;;;17.75;7.20;;;7.50;77.60;;;;;;5001708;28;20512;-52
2024/03/18 01:13:18;;;;;;;10.68;5.20;;;7.50;53.10;;;;;;5001474;28;20041;-60
2024/03/18 01:15:44;;;;;;;12.90;5.20;;;7.50;54.60;;;;;;4967659;28;20324;-57
2024/03/18 01:18:10;;;;;;;10.80;5.20;;;7.50;62.90;;;;;;5002545;28;20370;-54
2024/03/18 01:20:36;;;;;;;10.55;5.57;;;7.50;59.80;;;;;;4985214;28;20125;-56
2024/03/18 01:23:04;;;;;;;15.52;4.30;;;7.50;47.70;;;;;;5001297;28;20100;-64
2024/03/18 01:25:32;;;;;;;7.75;5.20;;;7.50;35.80;;;;;;5003150;28;20052;-64
2024/03/18 01:27:57;;;;;;;7.28;4.65;;;7.50;44.00;;;;;;5001948;28;20057;-64
2024/03/18 01:30:23;;;;;;;13.18;6.60;;;7.50;36.50;;;;;;4997260;28;20053;-62
2024/03/18 01:32:49;;;;;;;17.00;5.97;;;7.50;40.10;;;;;;5007547;28;20053;-57
2024/03/18 01:35:19;;;;;;;8.90;5.53;;;7.50;29.90;;;;;;5002647;28;20088;-64
2024/03/18 01:37:45;;;;;;;25.35;6.90;;;7.50;32.10;;;;;;5000452;28;20057;-60
2024/03/18 01:40:15;;;;;;;11.85;6.18;;;7.50;27.00;;;;;;4998239;28;20444;-51
2024/03/18 01:42:42;;;;;;;13.10;5.65;;;7.50;36.20;;;;;;5001447;28;20069;-54
2024/03/18 01:45:09;;;;;;;15.63;6.30;;;7.50;41.10;;;;;;5000840;28;20147;-63
2024/03/18 01:47:38;;;;;;;13.82;5.55;;;7.50;51.10;;;;;;5005356;28;20051;-64
2024/03/18 01:50:05;;;;;;;12.30;6.25;;;7.50;69.00;;;;;;4983378;28;20054;-54
2024/03/18 01:52:31;;;;;;;13.75;6.00;;;7.50;68.80;;;;;;4987969;28;20626;-57
2024/03/18 01:54:58;;;;;;;11.40;5.60;;;7.50;90.50;;;;;;5000616;28;20118;-54
2024/03/18 01:57:26;;;;;;;9.25;4.85;;;7.40;93.60;;;;;;5000168;28;20077;-62
2024/03/18 01:59:52;;;;;;;13.23;5.68;;;7.40;84.50;;;;;;5002470;28;20061;-62
2024/03/18 02:02:18;;;;;;;13.95;6.35;;;7.50;90.00;;;;;;4983022;28;20057;-62
2024/03/18 02:04:44;;;;;;;12.27;5.82;;;7.40;92.60;;;;;;4984458;28;20054;-62
2024/03/18 02:07:27;;;;;;;9.45;4.50;;;7.40;98.80;;;;;;5001391;28;20504;-50
2024/03/18 02:09:53;;;;;;;8.98;5.90;;;7.40;94.80;;;;;;4983723;28;20045;-54
2024/03/18 02:12:19;;;;;;;13.45;6.65;;;7.40;90.20;;;;;;5004222;28;20099;-56
2024/03/18 02:14:51;;;;;;;10.82;6.43;;;7.40;91.50;;;;;;5004839;28;20054;-62
2024/03/18 02:17:20;;;;;;;8.07;5.82;;;7.40;86.50;;;;;;5000582;28;20463;-61
2024/03/18 02:19:46;;;;;;;10.17;6.07;;;7.40;81.90;;;;;;5009069;28;20116;-55
2024/03/18 02:22:12;;;;;;;8.38;4.75;;;7.40;85.70;;;;;;4986835;28;20053;-55
2024/03/18 02:24:39;;;;;;;10.82;5.20;;;7.40;88.50;;;;;;4999888;28;20037;-56
2024/03/18 02:27:10;;;;;;;9.40;5.60;;;7.40;78.30;;;;;;5001763;28;20050;-56
2024/03/18 02:29:36;;;;;;;16.73;5.20;;;7.40;59.40;;;;;;5000487;28;20108;-52
2024/03/18 02:32:03;;;;;;;10.90;5.43;;;7.40;47.90;;;;;;4982831;28;20088;-54
2024/03/18 02:34:32;;;;;;;7.85;4.72;;;7.40;57.70;;;;;;5012236;28;20050;-60
2024/03/18 02:36:59;;;;;;;10.43;5.15;;;7.40;58.00;;;;;;5002186;28;20060;-61
2024/03/18 02:39:26;;;;;;;7.63;5.47;;;7.40;55.60;;;;;;4995971;28;20054;-56
2024/03/18 02:41:53;;;;;;;10.63;5.93;;;7.40;66.60;;;;;;5001046;28;20496;-56
2024/03/18 02:44:19;;;;;;;11.93;5.82;;;7.40;66.50;;;;;;5007989;28;20141;-58
2024/03/18 02:46:46;;;;;;;10.52;5.38;;;7.40;71.30;;;;;;5000721;28;20140;-53
2024/03/18 02:49:12;;;;;;;11.82;5.50;;;7.50;51.90;;;;;;4999840;28;20053;-66
2024/03/18 02:51:38;;;;;;;10.80;5.53;;;7.40;32.20;;;;;;5004862;28;20061;-66
2024/03/18 02:54:04;;;;;;;11.40;5.68;;;7.40;44.00;;;;;;4998210;28;20128;-63
2024/03/18 02:56:30;;;;;;;13.82;5.68;;;7.40;35.20;;;;;;4999937;28;20056;-62
2024/03/18 02:58:56;;;;;;;12.98;5.97;;;7.50;47.60;;;;;;5000581;28;20555;-61
2024/03/18 03:01:23;;;;;;;12.82;5.80;;;7.40;54.80;;;;;;5001692;28;20080;-58
2024/03/18 03:03:51;;;;;;;8.65;5.35;;;7.50;73.10;;;;;;5007920;28;20060;-58
2024/03/18 03:06:18;;;;;;;13.25;6.03;;;7.50;84.20;;;;;;4981654;28;20062;-58
2024/03/18 03:08:45;;;;;;;12.63;6.32;;;7.40;98.00;;;;;;4982162;28;20104;-64
2024/03/18 03:11:12;;;;;;;14.98;5.78;;;7.40;99.90;;;;;;4985824;28;20484;-52
2024/03/18 03:13:38;;;;;;;9.52;5.65;;;7.40;99.90;;;;;;5008614;28;20060;-61
2024/03/18 03:16:04;;;;;;;12.35;5.93;;;7.40;99.90;;;;;;5005571;28;20389;-65
2024/03/18 03:18:29;;;;;;;12.80;5.97;;;7.30;99.90;;;;;;4987059;28;20073;-57
2024/03/18 03:20:58;;;;;;;14.48;5.70;;;7.40;99.90;;;;;;4984275;28;20061;-60
2024/03/18 03:23:23;;;;;;;12.27;5.47;;;7.30;99.90;;;;;;4970820;28;20053;-56
2024/03/18 03:25:49;;;;;;;10.10;5.85;;;7.30;99.90;;;;;;5004250;28;20515;-63
2024/03/18 03:28:17;;;;;;;14.85;5.65;;;7.30;99.90;;;;;;5008418;28;20054;-60
2024/03/18 03:30:43;;;;;;;8.98;5.45;;;7.30;99.90;;;;;;5004203;28;20064;-62
2024/03/18 03:33:09;;;;;;;11.70;5.93;;;7.30;99.90;;;;;;5003767;28;20484;-58
2024/03/18 03:35:35;;;;;;;16.05;5.68;;;7.30;99.90;;;;;;5005015;28;20053;-56
2024/03/18 03:38:01;;;;;;;14.35;5.55;;;7.30;99.90;;;;;;4995196;28;20053;-64
2024/03/18 03:40:26;;;;;;;10.52;5.97;;;7.30;99.90;;;;;;4986858;28;20086;-66
2024/03/18 03:42:52;;;;;;;8.95;5.00;;;7.30;99.90;;;;;;5003196;28;20625;-62
2024/03/18 03:45:24;;;;;;;12.00;5.75;;;7.30;99.90;;;;;;5016472;28;20822;-60
2024/03/18 03:47:50;;;;;;;9.50;5.22;;;7.30;99.90;;;;;;5007832;28;20107;-65
2024/03/18 03:50:15;;;;;;;16.50;5.47;;;7.30;99.90;;;;;;5003273;28;20492;-64
2024/03/18 03:52:41;;;;;;;10.80;5.03;;;7.30;99.90;;;;;;5009788;28;20048;-61
2024/03/18 03:55:08;;;;;;;9.70;4.82;;;7.30;99.90;;;;;;5006164;28;20038;-63
2024/03/18 03:57:34;;;;;;;7.75;4.70;;;7.30;99.90;;;;;;5004590;28;20528;-65
2024/03/18 04:00:00;;;;;;;8.38;5.15;;;7.30;99.90;;;;;;4990187;28;20085;-55
2024/03/18 04:02:26;;;;;;;10.68;6.07;;;7.30;99.90;;;;;;5003319;28;20657;-52
2024/03/18 04:04:52;;;;;;;13.07;5.43;;;7.30;99.90;;;;;;4988549;28;20077;-62
2024/03/18 04:07:23;;;;;;;10.20;5.30;;;7.30;99.90;;;;;;5007230;28;20072;-64
2024/03/18 04:09:50;;;;;;;11.45;5.05;;;7.30;99.90;;;;;;4997937;28;20080;-57
2024/03/18 04:12:17;;;;;;;17.00;5.78;;;7.30;99.90;;;;;;4989359;28;20097;-57
2024/03/18 04:14:43;;;;;;;13.52;5.70;;;7.30;99.90;;;;;;4994405;28;20130;-59
2024/03/18 04:17:15;;;;;;;12.00;5.13;;;7.40;99.90;;;;;;5004620;28;20615;-54
2024/03/18 04:19:41;;;;;;;20.27;6.07;;;7.30;99.90;;;;;;5006716;28;20046;-59
2024/03/18 04:22:08;;;;;;;12.30;5.63;;;7.40;99.90;;;;;;5004786;28;20128;-55
2024/03/18 04:24:35;;;;;;;13.65;5.88;;;7.30;99.90;;;;;;5003431;28;20053;-57
2024/03/18 04:27:00;;;;;;;10.48;5.30;;;7.30;99.90;;;;;;4986975;28;20058;-61
2024/03/18 04:29:28;;;;;;;10.50;4.90;;;7.30;99.90;;;;;;5010985;28;20128;-54
2024/03/18 04:31:53;;;;;;;11.13;5.00;;;7.30;99.90;;;;;;5003811;28;20096;-61
2024/03/18 04:34:19;;;;;;;10.88;5.32;;;7.30;99.90;;;;;;5001394;28;20042;-59
2024/03/18 04:36:45;;;;;;;15.80;5.07;;;7.30;99.90;;;;;;5003236;28;20050;-55
2024/03/18 04:39:10;;;;;;;15.65;5.53;;;7.30;99.90;;;;;;4997840;28;20042;-47
2024/03/18 04:41:36;;;;;;;9.25;4.70;;;7.30;99.90;;;;;;5002537;28;20042;-59
2024/03/18 04:44:02;;;;;;;14.23;5.25;;;7.30;99.90;;;;;;5002058;28;20052;-59
2024/03/18 04:46:29;;;;;;;10.50;5.80;;;7.30;99.90;;;;;;4984268;28;20542;-56
2024/03/18 04:48:54;;;;;;;15.13;6.05;;;7.20;99.90;;;;;;5002339;28;20100;-59
2024/03/18 04:51:20;;;;;;;14.73;5.65;;;7.20;99.90;;;;;;5002373;28;20519;-58
2024/03/18 04:53:46;;;;;;;14.05;6.47;;;7.20;99.90;;;;;;5008476;28;20445;-57
2024/03/18 04:56:11;;;;;;;10.68;6.00;;;7.20;99.90;;;;;;5009184;28;20500;-60
2024/03/18 04:58:37;;;;;;;13.88;6.35;;;7.10;99.90;;;;;;5003502;28;20038;-62
2024/03/18 05:01:03;;;;;;;9.02;5.97;;;7.10;99.90;;;;;;5002457;28;20504;-59
2024/03/18 05:03:29;;;;;;;13.32;6.20;;;7.00;99.90;;;;;;4996312;28;20042;-63
2024/03/18 05:05:55;;;;;;;11.52;6.20;;;7.00;99.90;;;;;;5011630;28;20157;-61
2024/03/18 05:08:21;;;;;;;10.43;5.95;;;7.00;99.90;;;;;;5010200;28;20041;-50
2024/03/18 05:10:47;;;;;;;9.27;5.63;;;7.00;99.90;;;;;;5003361;28;20108;-59
2024/03/18 05:13:13;;;;;;;11.48;6.57;;;7.00;99.90;;;;;;4999759;28;20072;-59
2024/03/18 05:15:39;;;;;;;10.52;6.13;;;7.00;99.90;;;;;;5012443;28;20056;-61
2024/03/18 05:18:05;;;;;;;9.80;6.38;;;6.90;99.90;;;;;;4984109;28;20141;-59
2024/03/18 05:20:30;;;;;;;16.13;6.85;;;6.90;99.90;;;;;;5005833;28;20081;-62
2024/03/18 05:22:56;;;;;;;12.70;6.18;;;6.90;99.90;;;;;;5002852;28;20088;-62
2024/03/18 05:25:22;;;;;;;13.30;6.70;;;6.90;99.90;;;;;;5002243;28;20116;-57
2024/03/18 05:27:48;;;;;;;9.07;5.95;;;6.90;99.90;;;;;;5005697;28;20527;-63
2024/03/18 05:30:14;;;;;;;14.75;6.82;;;6.90;99.90;;;;;;5000607;28;20050;-65
2024/03/18 05:32:40;;;;;;;10.70;6.20;;;6.90;99.90;;;;;;5003438;28;20119;-56
2024/03/18 05:35:06;;;;;;;13.75;6.55;;;6.80;99.90;;;;;;5007843;28;20633;-64
2024/03/18 05:37:32;;;;;;;12.25;6.00;;;6.80;99.90;;;;;;5008391;28;20531;-58
2024/03/18 05:39:58;;;;;;;12.38;6.18;;;6.80;99.90;;;;;;5002034;28;20049;-59
2024/03/18 05:42:23;;;;;;;11.95;5.80;;;6.80;99.90;;;;;;5003450;28;20147;-59
2024/03/18 05:44:49;;;;;;;8.90;6.20;;;6.70;99.90;;;;;;4986383;28;20171;-57
2024/03/18 05:47:15;;;;;;;11.85;6.60;;;6.70;99.90;;;;;;4982249;28;20060;-63
2024/03/18 05:49:41;;;;;;;12.45;6.93;;;6.70;99.90;;;;;;4984940;28;20042;-59
2024/03/18 05:52:07;;;;;;;7.55;6.00;;;6.70;99.90;;;;;;5000985;28;20052;-59
2024/03/18 05:54:33;;;;;;;8.60;5.75;;;6.70;99.90;;;;;;5001417;28;20042;-60
2024/03/18 05:56:59;;;;;;;15.23;6.65;;;6.60;99.90;;;;;;5001759;28;20182;-62
2024/03/18 05:59:24;;;;;;;13.68;6.05;;;6.60;99.90;;;;;;5003816;28;20058;-64
2024/03/18 06:01:51;;;;;;;12.02;6.78;;;6.70;99.90;;;;;;5004399;28;20046;-61
2024/03/18 06:04:19;;;;;;;12.30;5.57;;;6.70;99.90;;;;;;4978744;28;20064;-61
2024/03/18 06:06:44;;;;;;;9.52;6.18;;;6.70;99.90;;;;;;4997789;28;20243;-54
2024/03/18 06:09:10;;;;;;;12.30;5.95;;;6.70;99.90;;;;;;4985139;28;20128;-61
2024/03/18 06:11:38;;;;;;;16.88;7.13;;;6.70;99.90;;;;;;5001994;28;20495;-63
2024/03/18 06:14:11;;;;;;;16.02;7.43;;;6.60;99.90;;;;;;4978168;28;20057;-62
2024/03/18 06:16:37;;;;;;;14.32;7.07;;;6.70;99.90;;;;;;4977510;28;20049;-62
2024/03/18 06:19:04;;;;;;;13.63;6.82;;;6.70;99.90;;;;;;5000457;28;20408;-61
2024/03/18 06:21:40;;;;;;;12.88;6.50;;;6.70;99.90;;;;;;5000127;28;20030;-53
2024/03/18 06:24:09;;;;;;;14.63;7.25;;;6.70;99.90;;;;;;5000555;28;20042;-64
2024/03/18 06:26:35;;;;;;;13.02;7.03;;;6.70;99.90;;;;;;5002751;28;20382;-57
2024/03/18 06:29:01;;;;;;;9.27;5.68;;;6.70;99.90;;;;;;5000167;28;20052;-52
2024/03/18 06:31:27;;;;;;;12.50;6.35;;;6.70;99.90;;;;;;5000396;28;20492;-54
2024/03/18 06:33:53;;;;;;;11.23;6.65;;;6.70;99.90;;;;;;5008446;28;20045;-62
2024/03/18 06:36:19;;;;;;;13.60;6.28;;;6.70;99.90;;;;;;4998686;28;20053;-48
2024/03/18 06:38:45;;;;;;;12.88;6.60;;;6.70;99.90;;;;;;4999716;28;20124;-61
2024/03/18 06:41:11;;;;;;;13.23;7.00;;;6.70;99.90;;;;;;5001658;28;20057;-58
2024/03/18 06:43:38;;;;;;;13.25;7.22;;;6.70;99.90;;;;;;5000996;28;20133;-63
2024/03/18 06:46:05;;;;;;;16.67;7.13;;;6.70;99.90;;;;;;5000863;28;20048;-50
2024/03/18 06:48:32;;;;;;;11.55;6.82;;;6.70;99.90;;;;;;5000485;28;20092;-57
2024/03/18 06:50:58;;;;;;;12.07;6.35;;;6.80;99.90;;;;;;4968001;28;20076;-63
2024/03/18 06:53:25;;;;;;;14.25;8.00;;;6.70;99.90;;;;;;5000068;28;20050;-64
2024/03/18 06:55:51;;;;;;;13.13;7.05;;;6.80;99.90;;;;;;4974187;28;20069;-59
2024/03/18 06:58:18;;;;;;;21.80;7.13;;;6.80;99.90;;;;;;4996600;28;20049;-47
2024/03/18 07:00:44;;;;;;;9.65;6.25;;;6.90;99.90;;;;;;4999760;28;20132;-50
2024/03/18 07:03:10;;;;;;;17.35;6.90;;;6.80;99.90;;;;;;4999157;28;20489;-60
2024/03/18 07:05:36;;;;;;;11.88;7.50;;;6.80;99.90;;;;;;4981521;28;20508;-53
2024/03/18 07:08:02;;;;;;;15.98;7.57;;;6.80;99.90;;;;;;5005964;28;20080;-60
2024/03/18 07:10:28;;;;;;;12.10;7.28;;;6.80;99.90;;;;;;5002690;28;20057;-53
2024/03/18 07:12:54;;;;;;;13.70;6.05;;;6.90;99.90;;;;;;5000416;28;20715;-56
2024/03/18 07:15:20;;;;;;;10.60;6.05;;;6.80;99.90;;;;;;4981309;28;20224;-66
2024/03/18 07:17:46;;;;;;;10.43;6.55;;;6.90;99.90;;;;;;5000004;28;20074;-58
2024/03/18 07:20:12;;;;;;;10.80;6.10;;;6.90;99.90;;;;;;5009917;28;20054;-62
2024/03/18 07:22:39;;;;;;;10.60;5.53;;;6.90;99.90;;;;;;4999402;28;20050;-59
2024/03/18 07:25:09;;;;;;;15.32;7.05;;;6.90;99.90;;;;;;5000130;28;20085;-64
2024/03/18 07:27:39;;;;;;;10.95;6.38;;;6.90;99.90;;;;;;4991032;28;20057;-60
2024/03/18 07:30:06;;;;;;;15.33;6.93;;;6.90;99.90;;;;;;5009359;28;20054;-53
2024/03/18 07:32:32;;;;;;;12.30;7.20;;;7.00;99.90;;;;;;4982809;28;20096;-61
2024/03/18 07:34:58;;;;;;;9.25;6.68;;;7.00;99.90;;;;;;4981419;28;20350;-53
2024/03/18 07:37:24;;;;;;;13.68;6.97;;;7.00;99.90;;;;;;5001348;28;20481;-55
2024/03/18 07:39:50;;;;;;;14.40;6.32;;;7.10;99.90;;;;;;4999535;28;20390;-60
2024/03/18 07:42:16;;;;;;;12.73;7.00;;;7.00;99.90;;;;;;5001884;28;20104;-64
2024/03/18 07:44:42;;;;;;;12.38;7.07;;;7.10;99.90;;;;;;4980605;28;20065;-65
2024/03/18 07:47:08;;;;;;;16.60;7.55;;;7.10;99.90;;;;;;5000720;28;20050;-53
2024/03/18 07:49:37;;;;;;;12.32;7.32;;;7.10;99.90;;;;;;4987275;28;20088;-65
2024/03/18 07:52:04;;;;;;;17.10;7.97;;;7.20;99.90;;;;;;5000169;28;20053;-57
2024/03/18 07:54:33;;;;;;;14.23;7.47;;;7.30;99.90;;;;;;5014113;28;20057;-62
2024/03/18 07:57:01;;;;;;;15.73;7.97;;;7.30;99.90;;;;;;5006601;28;20049;-57
2024/03/18 07:59:26;;;;;;;14.48;7.30;;;7.30;99.90;;;;;;5004040;28;20309;-60
2024/03/18 08:01:52;;;;;;;15.25;7.72;;;7.30;99.90;;;;;;5001631;28;21031;-60
2024/03/18 08:04:18;;;;;;;12.57;7.00;;;7.30;99.90;;;;;;5003167;28;20056;-55
2024/03/18 08:06:48;;;;;;;14.57;7.53;;;7.40;99.90;;;;;;5003318;28;20050;-57
2024/03/18 08:09:14;;;;;;;18.67;8.80;;;7.40;99.90;;;;;;5010939;28;20052;-54
2024/03/18 08:11:41;;;;;;;15.05;7.75;;;7.40;99.90;;;;;;5005006;28;20156;-56
2024/03/18 08:14:08;;;;;;;13.35;7.35;;;7.40;99.90;;;;;;5002378;28;20046;-55
2024/03/18 08:16:34;;;;;;;13.85;7.72;;;7.40;99.90;;;;;;5004163;28;20304;-63
2024/03/18 08:19:00;;;;;;;9.30;6.53;;;7.50;99.90;;;;;;4987707;28;20057;-53
2024/03/18 08:21:26;;;;;;;17.67;8.38;;;7.40;99.90;;;;;;4990389;28;20388;-50
2024/03/18 08:23:51;;;;;;;19.85;8.27;;;7.50;99.90;;;;;;4993015;28;20057;-59
2024/03/18 08:26:17;;;;;;;17.52;7.70;;;7.40;99.90;;;;;;5005041;28;20038;-52
2024/03/18 08:28:43;;;;;;;11.73;6.93;;;7.40;99.90;;;;;;5003223;28;20049;-62
2024/03/18 08:31:10;;;;;;;12.38;7.75;;;7.50;99.90;;;;;;5001342;28;20046;-62
2024/03/18 08:33:37;;;;;;;16.63;8.30;;;7.40;99.90;;;;;;5007611;28;20045;-57
2024/03/18 08:36:03;;;;;;;14.02;6.82;;;7.40;99.90;;;;;;5000763;28;20041;-58
2024/03/18 08:38:29;;;;;;;15.70;7.13;;;7.50;99.90;;;;;;4971190;28;20129;-63
2024/03/18 08:40:55;;;;;;;16.50;7.30;;;7.60;99.90;;;;;;4994589;28;20073;-59
2024/03/18 08:43:22;;;;;;;18.23;7.72;;;7.60;99.90;;;;;;4987034;28;20037;-61
2024/03/18 08:45:54;;;;;;;15.90;8.82;;;7.60;99.90;;;;;;5001765;28;20120;-57
2024/03/18 08:48:20;;;;;;;13.40;8.00;;;7.60;99.90;;;;;;5000499;28;20050;-62
2024/03/18 08:50:46;;;;;;;13.02;8.07;;;7.70;99.90;;;;;;4998150;28;20057;-58
2024/03/18 08:53:12;;;;;;;15.35;7.53;;;7.70;99.90;;;;;;4998638;28;20357;-52
2024/03/18 08:55:40;;;;;;;17.27;9.00;;;7.70;99.90;;;;;;5002822;28;20700;-59
2024/03/18 08:58:06;;;;;;;19.55;8.32;;;7.70;99.90;;;;;;4999597;28;20468;-51
2024/03/18 09:00:33;;;;;;;12.15;7.25;;;7.70;99.90;;;;;;4980336;28;20127;-63
2024/03/18 09:02:59;;;;;;;24.15;8.25;;;7.80;99.90;;;;;;4999480;28;20089;-54
2024/03/18 09:05:25;;;;;;;17.50;8.32;;;7.80;99.90;;;;;;4985504;28;20054;-52
2024/03/18 09:07:51;;;;;;;16.92;8.73;;;7.90;99.90;;;;;;5002116;28;20075;-58
2024/03/18 09:10:17;;;;;;;16.83;8.23;;;7.90;99.90;;;;;;5003323;28;20384;-52
2024/03/18 09:12:43;;;;;;;15.70;7.97;;;7.90;99.90;;;;;;5002982;28;20042;-61
2024/03/18 09:15:10;;;;;;;14.90;7.57;;;7.90;99.90;;;;;;5002599;28;20089;-62
2024/03/18 09:17:36;;;;;;;14.75;7.35;;;7.90;99.90;;;;;;5002646;28;20049;-55
2024/03/18 09:20:04;;;;;;;15.82;8.43;;;8.00;99.90;;;;;;4983755;28;20073;-59
2024/03/18 09:22:30;;;;;;;13.60;7.57;;;8.00;99.90;;;;;;4994050;28;20053;-55
2024/03/18 09:24:56;;;;;;;16.63;8.50;;;8.00;99.90;;;;;;5002325;28;20068;-50
2024/03/18 09:27:22;;;;;;;20.05;8.75;;;8.00;99.90;;;;;;4983920;28;20061;-63
2024/03/18 09:29:49;;;;;;;10.85;7.22;;;8.00;99.90;;;;;;5001214;28;20041;-57
2024/03/18 09:32:15;;;;;;;16.88;8.23;;;8.10;99.90;;;;;;4982081;28;20058;-65
2024/03/18 09:34:41;;;;;;;16.90;8.02;;;8.00;99.90;;;;;;5004293;28;20042;-56
2024/03/18 09:37:06;;;;;;;14.60;7.53;;;8.00;99.90;;;;;;4983497;28;20521;-58
2024/03/18 09:39:32;;;;;;;15.50;7.35;;;8.10;99.90;;;;;;5001964;28;20077;-65
2024/03/18 09:41:59;;;;;;;11.50;6.85;;;8.10;99.90;;;;;;4986247;28;20107;-59
2024/03/18 09:44:25;;;;;;;13.02;6.53;;;8.10;99.90;;;;;;5000549;28;20057;-61
2024/03/18 09:46:50;;;;;;;15.40;7.30;;;8.10;99.90;;;;;;5006631;28;20068;-65
2024/03/18 09:49:22;;;;;;;13.98;8.50;;;8.10;99.90;;;;;;5004555;28;20378;-60
2024/03/18 09:51:49;;;;;;;13.30;8.57;;;8.10;99.90;;;;;;5001834;28;20045;-55
2024/03/18 09:54:17;;;;;;;15.35;8.43;;;8.10;99.90;;;;;;5004115;28;20416;-61
2024/03/18 09:56:54;;;;;;;17.10;8.65;;;8.20;99.90;;;;;;5002395;28;20037;-56
2024/03/18 09:59:19;;;;;;;12.20;8.25;;;8.20;99.90;;;;;;4980349;28;20406;-62
2024/03/18 10:01:45;;;;;;;14.30;8.52;;;8.20;99.90;;;;;;4974156;28;20078;-58
2024/03/18 10:04:11;;;;;;;14.55;7.13;;;8.20;99.90;;;;;;4989071;28;20488;-58
2024/03/18 10:06:39;;;;;;;18.75;9.05;;;8.30;99.90;;;;;;4981434;28;20049;-61
2024/03/18 10:09:05;;;;;;;9.93;7.13;;;8.30;99.90;;;;;;4983000;28;20101;-56
2024/03/18 10:11:31;;;;;;;13.05;7.63;;;8.30;99.90;;;;;;4985580;28;20100;-54
2024/03/18 10:13:57;;;;;;;19.10;7.18;;;8.30;99.90;;;;;;4981319;28;20567;-61
2024/03/18 10:16:23;;;;;;;15.00;7.45;;;8.30;99.90;;;;;;4990176;28;20041;-62
2024/03/18 10:18:49;;;;;;;18.02;9.43;;;8.30;99.90;;;;;;4988984;28;20053;-65
2024/03/18 10:21:15;;;;;;;15.90;7.80;;;8.30;99.90;;;;;;4982637;28;20042;-59
2024/03/18 10:23:48;;;;;;;11.75;8.23;;;8.30;99.90;;;;;;4981276;28;20054;-52
2024/03/18 10:26:16;;;;;;;15.18;8.52;;;8.30;99.90;;;;;;4966798;28;20072;-61
2024/03/18 10:28:43;;;;;;;11.63;6.60;;;8.30;99.90;;;;;;4980917;28;20085;-50
2024/03/18 10:31:14;;;;;;;9.55;7.50;;;8.30;99.90;;;;;;4981849;28;20100;-59
2024/03/18 10:33:43;;;;;;;;;;;8.30;99.90;;;;;;4979521;28;20591;-59
2024/03/18 10:36:15;;;;;;;20.67;7.70;;;8.40;99.90;;;;;;4983878;28;19932;-65
2024/03/18 10:38:44;;;;;;;15.57;8.00;;;8.40;99.90;;;;;;4977605;28;20054;-63
2024/03/18 10:41:13;;;;;;;13.35;8.25;;;8.40;99.90;;;;;;4981008;28;20056;-62
2024/03/18 10:43:43;;;;;;;15.90;8.25;;;8.40;99.90;;;;;;4986240;28;20038;-62
2024/03/18 10:46:12;;;;;;;16.27;8.10;;;8.50;99.90;;;;;;4984543;28;20412;-56
2024/03/18 10:48:42;;;;;;;14.80;6.53;;;8.50;99.90;;;;;;4974951;28;20308;-63
2024/03/18 10:51:12;;;;;;;17.60;9.10;;;8.50;99.90;;;;;;4979483;28;20108;-58
2024/03/18 10:53:38;;;;;;;16.30;8.88;;;8.60;99.90;;;;;;4978122;28;20129;-61
2024/03/18 10:56:04;;;;;;;14.82;8.90;;;8.60;99.90;;;;;;4988324;28;20065;-59
2024/03/18 10:58:31;;;;;;;16.27;9.50;;;8.60;99.90;;;;;;4984602;28;20050;-56
2024/03/18 11:00:58;;;;;;;15.27;7.93;;;8.70;99.90;;;;;;4979307;28;20066;-65
2024/03/18 11:03:25;;;;;;;19.75;9.85;;;8.90;99.90;;;;;;4983305;28;20053;-59
2024/03/18 11:05:56;;;;;;;16.67;9.43;;;9.00;99.90;;;;;;4982807;28;20392;-59
2024/03/18 11:08:23;;;;;;;15.85;9.93;;;9.00;99.90;;;;;;4979494;28;20583;-63
2024/03/18 11:10:52;;;;;;;17.02;8.73;;;9.10;99.90;;;;;;4980879;28;20432;-59
2024/03/18 11:13:20;;;;;;;16.48;9.43;;;9.20;99.90;;;;;;4981442;28;20047;-53
2024/03/18 11:15:46;;;;;;;16.42;9.75;;;9.40;99.90;;;;;;4982834;28;20077;-55
2024/03/18 11:18:17;;;;;;;18.45;10.18;;;9.50;99.90;;;;;;4973341;28;20070;-58
2024/03/18 11:20:45;;;;;;;20.00;9.45;;;9.40;99.90;;;;;;4969012;28;20050;-63
2024/03/18 11:23:15;;;;;;;18.02;9.15;;;9.50;99.90;;;;;;4984991;28;20046;-57
2024/03/18 11:25:41;;;;;;;16.70;9.52;;;9.50;99.90;;;;;;4981644;28;20100;-60
2024/03/18 11:28:07;;;;;;;15.65;9.48;;;9.60;99.90;;;;;;4980261;28;20133;-62
2024/03/18 11:30:35;;;;;;;13.40;9.60;;;9.60;99.90;;;;;;4983988;28;20125;-63
2024/03/18 11:33:13;;;;;;;20.05;10.27;;;9.60;99.90;;;;;;4982853;28;20120;-55
2024/03/18 11:35:44;;;;;;;23.95;9.13;;;9.60;99.90;;;;;;4994180;28;20043;-51
2024/03/18 11:38:12;;;;;;;18.63;10.98;;;9.70;99.90;;;;;;4998582;28;20148;-50
2024/03/18 11:40:39;;;;;;;21.65;10.05;;;9.60;99.90;;;;;;4992039;28;20046;-55
2024/03/18 11:43:06;;;;;;;13.80;8.32;;;9.60;99.90;;;;;;4990818;28;20051;-65
2024/03/18 11:45:32;;;;;;;13.77;9.27;;;9.60;99.90;;;;;;4984716;28;20508;-65
2024/03/18 11:48:09;;;;;;;22.30;10.70;;;9.60;99.90;;;;;;4984791;28;20158;-57
2024/03/18 11:50:38;;;;;;;19.52;9.85;;;9.70;99.90;;;;;;4981965;28;20080;-59
2024/03/18 11:53:07;;;;;;;20.08;9.57;;;9.70;99.90;;;;;;4981810;28;20055;-65
2024/03/18 11:55:40;;;;;;;23.45;10.35;;;9.80;99.90;;;;;;4982207;28;20053;-62
2024/03/18 11:58:07;;;;;;;17.48;10.20;;;9.90;99.90;;;;;;4981907;28;20080;-62
2024/03/18 12:00:34;;;;;;;18.60;10.68;;;10.00;99.90;;;;;;4984698;28;20062;-54
2024/03/18 12:03:11;;;;;;;17.08;10.93;;;10.10;99.90;;;;;;4977010;28;20103;-62
2024/03/18 12:05:45;;;;;;;19.33;11.40;;;10.20;99.90;;;;;;4980545;28;20069;-56
2024/03/18 12:08:29;;;;;;;20.35;9.98;;;10.30;99.90;;;;;;4998229;28;20042;-55
2024/03/18 12:10:56;;;;;;;17.45;10.73;;;10.30;99.90;;;;;;5000755;28;20497;-60
2024/03/18 12:13:24;;;;;;;20.55;9.48;;;10.30;99.90;;;;;;5003814;28;20119;-57
2024/03/18 12:15:51;;;;;;;19.52;10.98;;;10.40;99.90;;;;;;4987661;28;20567;-54
2024/03/18 12:18:17;;;;;;;20.58;11.15;;;10.40;99.90;;;;;;5002207;28;20626;-58
2024/03/18 12:20:55;;;;;;;23.75;11.00;;;10.40;99.90;;;;;;5003118;28;20467;-51
2024/03/18 12:28:58;;;;;;;20.13;10.30;;;10.30;99.90;;;;;;5007188;28;20065;-59
2024/03/18 12:31:25;;;;;;;20.35;10.57;;;10.30;99.90;;;;;;5001705;28;20042;-55
2024/03/18 12:33:51;;;;;;;20.50;10.75;;;10.30;99.90;;;;;;4994648;28;20172;-58
2024/03/18 12:36:17;;;;;;;19.17;10.07;;;10.30;99.90;;;;;;5002988;28;20176;-56
2024/03/18 12:38:48;;;;;;;23.65;12.38;;;10.20;99.90;;;;;;5002843;28;20038;-53
2024/03/18 12:41:18;;;;;;;22.15;11.55;;;10.20;99.90;;;;;;5002453;28;20048;-59
2024/03/18 12:43:45;;;;;;;21.77;12.05;;;10.30;99.90;;;;;;5002621;28;20138;-57
2024/03/18 12:46:12;;;;;;;18.85;10.63;;;10.40;99.90;;;;;;4987563;28;20064;-55
2024/03/18 12:48:38;;;;;;;24.27;12.60;;;10.40;99.90;;;;;;5007346;28;20091;-64
2024/03/18 12:51:07;;;;;;;21.38;11.85;;;10.60;99.90;;;;;;5011143;28;20500;-55
2024/03/18 12:53:35;;;;;;;26.60;12.68;;;10.70;99.90;;;;;;4998785;28;20085;-59
2024/03/18 12:56:04;;;;;;;20.00;10.98;;;10.80;99.90;;;;;;4975972;28;20050;-54